sensor_id;sensor_type;location;lat;lon;timestamp;temperature;humidity
40340;DHT22;26044;50.864;20.658;2022-09-09T00:09:18;16.40;99.90
40340;DHT22;26044;50.864;20.658;2022-09-09T00:11:54;16.40;99.90
40340;DHT22;26044;50.864;20.658;2022-09-09T00:17:08;16.30;99.90
40340;DHT22;26044;50.864;20.658;2022-09-09T00:19:46;16.30;99.90
40340;DHT22;26044;50.864;20.658;2022-09-09T00:22:20;16.40;99.90
40340;DHT22;26044;50.864;20.658;2022-09-09T00:24:53;16.40;99.90
40340;DHT22;26044;50.864;20.658;2022-09-09T00:27:45;16.30;99.90
40340;DHT22;26044;50.864;20.658;2022-09-09T00:30:19;16.20;99.90
40340;DHT22;26044;50.864;20.658;2022-09-09T00:32:54;16.20;99.90
40340;DHT22;26044;50.864;20.658;2022-09-09T00:35:36;16.30;99.90
40340;DHT22;26044;50.864;20.658;2022-09-09T00:38:20;16.30;99.90
40340;DHT22;26044;50.864;20.658;2022-09-09T00:41:00;16.30;99.90
40340;DHT22;26044;50.864;20.658;2022-09-09T00:43:38;16.20;99.90
40340;DHT22;26044;50.864;20.658;2022-09-09T00:46:27;16.30;99.90
40340;DHT22;26044;50.864;20.658;2022-09-09T00:57:29;16.30;99.90
40340;DHT22;26044;50.864;20.658;2022-09-09T01:00:17;16.30;99.90
40340;DHT22;26044;50.864;20.658;2022-09-09T01:08:57;16.40;99.90
40340;DHT22;26044;50.864;20.658;2022-09-09T01:22:40;16.50;99.90
40340;DHT22;26044;50.864;20.658;2022-09-09T01:28:16;16.60;99.90
40340;DHT22;26044;50.864;20.658;2022-09-09T01:30:43;16.60;99.90
40340;DHT22;26044;50.864;20.658;2022-09-09T01:33:15;16.70;99.90
40340;DHT22;26044;50.864;20.658;2022-09-09T01:38:09;16.70;99.90
40340;DHT22;26044;50.864;20.658;2022-09-09T01:40:35;16.80;99.90
40340;DHT22;26044;50.864;20.658;2022-09-09T01:43:03;16.80;99.90
40340;DHT22;26044;50.864;20.658;2022-09-09T01:45:31;16.80;99.90
40340;DHT22;26044;50.864;20.658;2022-09-09T01:47:58;16.90;99.90
40340;DHT22;26044;50.864;20.658;2022-09-09T01:50:25;16.80;99.90
40340;DHT22;26044;50.864;20.658;2022-09-09T01:52:56;16.90;99.90
40340;DHT22;26044;50.864;20.658;2022-09-09T02:00:36;17.00;99.90
40340;DHT22;26044;50.864;20.658;2022-09-09T02:05:51;17.00;99.90
40340;DHT22;26044;50.864;20.658;2022-09-09T02:08:29;16.90;99.90
40340;DHT22;26044;50.864;20.658;2022-09-09T02:11:10;17.00;99.90
40340;DHT22;26044;50.864;20.658;2022-09-09T02:13:38;17.00;99.90
40340;DHT22;26044;50.864;20.658;2022-09-09T02:16:37;17.00;99.90
40340;DHT22;26044;50.864;20.658;2022-09-09T02:19:12;17.00;99.90
40340;DHT22;26044;50.864;20.658;2022-09-09T02:21:42;17.00;99.90
40340;DHT22;26044;50.864;20.658;2022-09-09T02:24:12;17.00;99.90
40340;DHT22;26044;50.864;20.658;2022-09-09T02:26:42;17.00;99.90
40340;DHT22;26044;50.864;20.658;2022-09-09T02:29:16;17.00;99.90
40340;DHT22;26044;50.864;20.658;2022-09-09T02:31:44;17.00;99.90
40340;DHT22;26044;50.864;20.658;2022-09-09T02:34:13;17.00;99.90
40340;DHT22;26044;50.864;20.658;2022-09-09T02:36:42;17.00;99.90
40340;DHT22;26044;50.864;20.658;2022-09-09T02:39:10;17.00;99.90
40340;DHT22;26044;50.864;20.658;2022-09-09T02:41:40;17.00;99.90
40340;DHT22;26044;50.864;20.658;2022-09-09T02:44:12;17.00;99.90
40340;DHT22;26044;50.864;20.658;2022-09-09T02:47:02;17.00;99.90
40340;DHT22;26044;50.864;20.658;2022-09-09T02:52:26;17.00;99.90
40340;DHT22;26044;50.864;20.658;2022-09-09T02:54:59;17.00;99.90
40340;DHT22;26044;50.864;20.658;2022-09-09T02:57:32;17.00;99.90
40340;DHT22;26044;50.864;20.658;2022-09-09T02:59:59;17.00;99.90
40340;DHT22;26044;50.864;20.658;2022-09-09T03:02:27;17.00;99.90
40340;DHT22;26044;50.864;20.658;2022-09-09T03:04:54;17.00;99.90
40340;DHT22;26044;50.864;20.658;2022-09-09T03:07:21;17.00;99.90
40340;DHT22;26044;50.864;20.658;2022-09-09T03:09:48;17.00;99.90
40340;DHT22;26044;50.864;20.658;2022-09-09T03:12:15;17.00;99.90
40340;DHT22;26044;50.864;20.658;2022-09-09T03:14:42;17.00;99.90
40340;DHT22;26044;50.864;20.658;2022-09-09T03:17:11;16.90;99.90
40340;DHT22;26044;50.864;20.658;2022-09-09T03:19:38;16.90;99.90
40340;DHT22;26044;50.864;20.658;2022-09-09T03:22:05;16.90;99.90
40340;DHT22;26044;50.864;20.658;2022-09-09T03:24:32;16.90;99.90
40340;DHT22;26044;50.864;20.658;2022-09-09T03:26:59;16.90;99.90
40340;DHT22;26044;50.864;20.658;2022-09-09T03:29:25;16.80;99.90
40340;DHT22;26044;50.864;20.658;2022-09-09T03:31:52;16.80;99.90
40340;DHT22;26044;50.864;20.658;2022-09-09T03:34:19;16.80;99.90
40340;DHT22;26044;50.864;20.658;2022-09-09T03:36:45;16.80;99.90
40340;DHT22;26044;50.864;20.658;2022-09-09T03:39:14;16.80;99.90
40340;DHT22;26044;50.864;20.658;2022-09-09T03:41:41;16.80;99.90
40340;DHT22;26044;50.864;20.658;2022-09-09T03:44:08;16.80;99.90
40340;DHT22;26044;50.864;20.658;2022-09-09T03:46:35;16.80;99.90
40340;DHT22;26044;50.864;20.658;2022-09-09T03:49:02;16.80;99.90
40340;DHT22;26044;50.864;20.658;2022-09-09T03:51:28;16.80;99.90
40340;DHT22;26044;50.864;20.658;2022-09-09T03:53:55;16.70;99.90
40340;DHT22;26044;50.864;20.658;2022-09-09T03:56:23;16.80;99.90
40340;DHT22;26044;50.864;20.658;2022-09-09T03:58:50;16.70;99.90
40340;DHT22;26044;50.864;20.658;2022-09-09T04:01:16;16.70;99.90
40340;DHT22;26044;50.864;20.658;2022-09-09T04:03:44;16.70;99.90
40340;DHT22;26044;50.864;20.658;2022-09-09T04:06:13;16.70;99.90
40340;DHT22;26044;50.864;20.658;2022-09-09T04:08:41;16.70;99.90
40340;DHT22;26044;50.864;20.658;2022-09-09T04:11:08;16.70;99.90
40340;DHT22;26044;50.864;20.658;2022-09-09T04:13:37;16.70;99.90
40340;DHT22;26044;50.864;20.658;2022-09-09T04:16:05;16.70;99.90
40340;DHT22;26044;50.864;20.658;2022-09-09T04:18:32;16.70;99.90
40340;DHT22;26044;50.864;20.658;2022-09-09T04:21:01;16.70;99.90
40340;DHT22;26044;50.864;20.658;2022-09-09T04:23:28;16.70;99.90
40340;DHT22;26044;50.864;20.658;2022-09-09T04:25:57;16.70;99.90
40340;DHT22;26044;50.864;20.658;2022-09-09T04:28:26;16.60;99.90
40340;DHT22;26044;50.864;20.658;2022-09-09T04:30:53;16.60;99.90
40340;DHT22;26044;50.864;20.658;2022-09-09T04:33:20;16.60;99.90
40340;DHT22;26044;50.864;20.658;2022-09-09T04:35:49;16.60;99.90
40340;DHT22;26044;50.864;20.658;2022-09-09T04:38:17;16.60;99.90
40340;DHT22;26044;50.864;20.658;2022-09-09T04:40:47;16.60;99.90
40340;DHT22;26044;50.864;20.658;2022-09-09T04:43:14;16.60;99.90
40340;DHT22;26044;50.864;20.658;2022-09-09T04:45:42;16.60;99.90
40340;DHT22;26044;50.864;20.658;2022-09-09T04:48:09;16.60;99.90
40340;DHT22;26044;50.864;20.658;2022-09-09T04:50:36;16.60;99.90
40340;DHT22;26044;50.864;20.658;2022-09-09T04:53:04;16.60;99.90
40340;DHT22;26044;50.864;20.658;2022-09-09T04:55:32;16.60;99.90
40340;DHT22;26044;50.864;20.658;2022-09-09T04:58:04;16.50;99.90
40340;DHT22;26044;50.864;20.658;2022-09-09T05:00:32;16.60;99.90
40340;DHT22;26044;50.864;20.658;2022-09-09T05:03:03;16.60;99.90
40340;DHT22;26044;50.864;20.658;2022-09-09T05:05:30;16.60;99.90
40340;DHT22;26044;50.864;20.658;2022-09-09T05:08:05;16.60;99.90
40340;DHT22;26044;50.864;20.658;2022-09-09T05:10:33;16.60;99.90
40340;DHT22;26044;50.864;20.658;2022-09-09T05:13:00;16.60;99.90
40340;DHT22;26044;50.864;20.658;2022-09-09T05:15:26;16.60;99.90
40340;DHT22;26044;50.864;20.658;2022-09-09T05:17:57;16.60;99.90
40340;DHT22;26044;50.864;20.658;2022-09-09T05:20:25;16.60;99.90
40340;DHT22;26044;50.864;20.658;2022-09-09T05:22:56;16.60;99.90
40340;DHT22;26044;50.864;20.658;2022-09-09T05:25:24;16.60;99.90
40340;DHT22;26044;50.864;20.658;2022-09-09T05:27:52;16.60;99.90
40340;DHT22;26044;50.864;20.658;2022-09-09T05:30:21;16.60;99.90
40340;DHT22;26044;50.864;20.658;2022-09-09T05:32:48;16.60;99.90
40340;DHT22;26044;50.864;20.658;2022-09-09T05:35:15;16.70;99.90
40340;DHT22;26044;50.864;20.658;2022-09-09T05:37:42;16.70;99.90
40340;DHT22;26044;50.864;20.658;2022-09-09T05:40:09;16.70;99.90
40340;DHT22;26044;50.864;20.658;2022-09-09T05:42:37;16.80;99.90
40340;DHT22;26044;50.864;20.658;2022-09-09T05:45:05;16.70;99.90
40340;DHT22;26044;50.864;20.658;2022-09-09T05:47:35;16.70;99.90
40340;DHT22;26044;50.864;20.658;2022-09-09T05:50:04;16.70;99.90
40340;DHT22;26044;50.864;20.658;2022-09-09T05:52:31;16.70;99.90
40340;DHT22;26044;50.864;20.658;2022-09-09T05:54:58;16.70;99.90
40340;DHT22;26044;50.864;20.658;2022-09-09T05:57:26;16.70;99.90
40340;DHT22;26044;50.864;20.658;2022-09-09T05:59:53;16.80;99.90
40340;DHT22;26044;50.864;20.658;2022-09-09T06:02:20;16.70;99.90
40340;DHT22;26044;50.864;20.658;2022-09-09T06:04:47;16.70;99.90
40340;DHT22;26044;50.864;20.658;2022-09-09T06:07:14;16.80;99.90
40340;DHT22;26044;50.864;20.658;2022-09-09T06:09:41;16.80;99.90
40340;DHT22;26044;50.864;20.658;2022-09-09T06:12:07;16.70;99.90
40340;DHT22;26044;50.864;20.658;2022-09-09T06:14:34;16.80;99.90
40340;DHT22;26044;50.864;20.658;2022-09-09T06:17:01;16.80;99.90
40340;DHT22;26044;50.864;20.658;2022-09-09T06:19:28;16.80;99.90
40340;DHT22;26044;50.864;20.658;2022-09-09T06:21:55;16.80;99.90
40340;DHT22;26044;50.864;20.658;2022-09-09T06:24:22;16.90;99.90
40340;DHT22;26044;50.864;20.658;2022-09-09T06:26:48;16.90;99.90
40340;DHT22;26044;50.864;20.658;2022-09-09T06:29:15;16.90;99.90
40340;DHT22;26044;50.864;20.658;2022-09-09T06:31:42;16.90;99.90
40340;DHT22;26044;50.864;20.658;2022-09-09T06:34:09;16.90;99.90
40340;DHT22;26044;50.864;20.658;2022-09-09T06:36:37;17.00;99.90
40340;DHT22;26044;50.864;20.658;2022-09-09T06:39:05;17.00;99.90
40340;DHT22;26044;50.864;20.658;2022-09-09T06:41:39;17.00;99.90
40340;DHT22;26044;50.864;20.658;2022-09-09T06:44:07;17.00;99.90
40340;DHT22;26044;50.864;20.658;2022-09-09T06:46:33;17.00;99.90
40340;DHT22;26044;50.864;20.658;2022-09-09T06:49:02;17.10;99.90
40340;DHT22;26044;50.864;20.658;2022-09-09T06:51:35;17.00;99.90
40340;DHT22;26044;50.864;20.658;2022-09-09T06:54:02;17.10;99.90
40340;DHT22;26044;50.864;20.658;2022-09-09T06:56:38;17.30;99.90
40340;DHT22;26044;50.864;20.658;2022-09-09T06:59:07;17.30;99.90
40340;DHT22;26044;50.864;20.658;2022-09-09T07:01:37;17.40;99.90
40340;DHT22;26044;50.864;20.658;2022-09-09T07:04:04;17.30;99.90
40340;DHT22;26044;50.864;20.658;2022-09-09T07:06:36;17.40;99.90
40340;DHT22;26044;50.864;20.658;2022-09-09T07:09:05;17.40;99.90
40340;DHT22;26044;50.864;20.658;2022-09-09T07:11:36;17.50;99.90
40340;DHT22;26044;50.864;20.658;2022-09-09T07:14:03;17.50;99.90
40340;DHT22;26044;50.864;20.658;2022-09-09T07:16:30;17.50;99.90
40340;DHT22;26044;50.864;20.658;2022-09-09T07:19:03;17.50;99.90
40340;DHT22;26044;50.864;20.658;2022-09-09T07:21:31;17.60;99.90
40340;DHT22;26044;50.864;20.658;2022-09-09T07:23:58;17.60;99.90
40340;DHT22;26044;50.864;20.658;2022-09-09T07:26:28;17.50;99.90
40340;DHT22;26044;50.864;20.658;2022-09-09T07:28:55;17.50;99.90
40340;DHT22;26044;50.864;20.658;2022-09-09T07:31:29;17.50;99.90
40340;DHT22;26044;50.864;20.658;2022-09-09T07:33:58;17.50;99.90
40340;DHT22;26044;50.864;20.658;2022-09-09T07:36:31;17.50;99.90
40340;DHT22;26044;50.864;20.658;2022-09-09T07:39:04;17.60;99.90
40340;DHT22;26044;50.864;20.658;2022-09-09T07:41:37;17.70;99.90
40340;DHT22;26044;50.864;20.658;2022-09-09T07:44:06;17.80;99.90
40340;DHT22;26044;50.864;20.658;2022-09-09T07:46:34;17.80;99.90
40340;DHT22;26044;50.864;20.658;2022-09-09T07:49:01;17.80;99.90
40340;DHT22;26044;50.864;20.658;2022-09-09T07:51:35;17.80;99.90
40340;DHT22;26044;50.864;20.658;2022-09-09T07:54:04;17.80;99.90
40340;DHT22;26044;50.864;20.658;2022-09-09T07:56:32;17.80;99.90
40340;DHT22;26044;50.864;20.658;2022-09-09T07:58:59;17.80;99.90
40340;DHT22;26044;50.864;20.658;2022-09-09T08:01:30;18.00;99.90
40340;DHT22;26044;50.864;20.658;2022-09-09T08:04:03;18.10;99.90
40340;DHT22;26044;50.864;20.658;2022-09-09T08:06:36;18.10;99.90
40340;DHT22;26044;50.864;20.658;2022-09-09T08:09:04;18.00;99.90
40340;DHT22;26044;50.864;20.658;2022-09-09T08:11:31;18.10;99.90
40340;DHT22;26044;50.864;20.658;2022-09-09T08:14:05;18.10;99.90
40340;DHT22;26044;50.864;20.658;2022-09-09T08:16:37;18.20;99.90
40340;DHT22;26044;50.864;20.658;2022-09-09T08:19:04;18.20;99.90
40340;DHT22;26044;50.864;20.658;2022-09-09T08:21:34;18.20;99.90
40340;DHT22;26044;50.864;20.658;2022-09-09T08:24:03;18.20;99.90
40340;DHT22;26044;50.864;20.658;2022-09-09T08:26:39;18.30;99.90
40340;DHT22;26044;50.864;20.658;2022-09-09T08:29:07;18.30;99.90
40340;DHT22;26044;50.864;20.658;2022-09-09T08:31:36;18.30;99.90
40340;DHT22;26044;50.864;20.658;2022-09-09T08:34:05;18.40;99.90
40340;DHT22;26044;50.864;20.658;2022-09-09T08:36:35;18.50;99.90
40340;DHT22;26044;50.864;20.658;2022-09-09T08:39:04;18.60;99.90
40340;DHT22;26044;50.864;20.658;2022-09-09T08:50:04;18.40;99.90
40340;DHT22;26044;50.864;20.658;2022-09-09T08:58:35;18.60;99.90
40340;DHT22;26044;50.864;20.658;2022-09-09T09:07:33;19.10;99.90
40340;DHT22;26044;50.864;20.658;2022-09-09T09:10:10;19.20;99.90
40340;DHT22;26044;50.864;20.658;2022-09-09T09:12:59;19.30;99.90
40340;DHT22;26044;50.864;20.658;2022-09-09T09:15:33;19.40;99.90
40340;DHT22;26044;50.864;20.658;2022-09-09T09:18:04;19.30;99.90
40340;DHT22;26044;50.864;20.658;2022-09-09T09:21:08;19.30;99.90
40340;DHT22;26044;50.864;20.658;2022-09-09T09:23:59;19.40;99.90
40340;DHT22;26044;50.864;20.658;2022-09-09T09:26:33;19.40;99.90
40340;DHT22;26044;50.864;20.658;2022-09-09T09:29:26;19.50;99.90
40340;DHT22;26044;50.864;20.658;2022-09-09T09:31:56;19.50;99.90
40340;DHT22;26044;50.864;20.658;2022-09-09T09:34:23;19.50;99.90
40340;DHT22;26044;50.864;20.658;2022-09-09T09:36:57;19.50;99.90
40340;DHT22;26044;50.864;20.658;2022-09-09T09:39:33;19.50;99.90
40340;DHT22;26044;50.864;20.658;2022-09-09T09:42:22;19.60;99.90
40340;DHT22;26044;50.864;20.658;2022-09-09T09:44:50;19.70;99.90
40340;DHT22;26044;50.864;20.658;2022-09-09T09:47:19;19.70;99.90
40340;DHT22;26044;50.864;20.658;2022-09-09T09:52:23;19.80;99.90
40340;DHT22;26044;50.864;20.658;2022-09-09T09:54:50;19.80;99.90
40340;DHT22;26044;50.864;20.658;2022-09-09T09:57:26;20.00;99.90
40340;DHT22;26044;50.864;20.658;2022-09-09T10:00:17;20.10;99.90
40340;DHT22;26044;50.864;20.658;2022-09-09T10:02:46;20.00;99.90
40340;DHT22;26044;50.864;20.658;2022-09-09T10:07:42;20.30;99.90
40340;DHT22;26044;50.864;20.658;2022-09-09T10:10:25;20.20;99.90
40340;DHT22;26044;50.864;20.658;2022-09-09T10:21:08;19.70;99.90
40340;DHT22;26044;50.864;20.658;2022-09-09T10:24:18;19.90;99.90
40340;DHT22;26044;50.864;20.658;2022-09-09T10:30:17;20.10;99.90
40340;DHT22;26044;50.864;20.658;2022-09-09T10:33:00;20.30;99.90
40340;DHT22;26044;50.864;20.658;2022-09-09T10:35:35;20.60;99.90
40340;DHT22;26044;50.864;20.658;2022-09-09T10:38:19;20.70;99.90
40340;DHT22;26044;50.864;20.658;2022-09-09T10:46:58;21.30;99.90
40340;DHT22;26044;50.864;20.658;2022-09-09T10:50:02;21.40;99.90
40340;DHT22;26044;50.864;20.658;2022-09-09T10:52:48;21.40;99.90
40340;DHT22;26044;50.864;20.658;2022-09-09T10:55:24;21.50;99.90
40340;DHT22;26044;50.864;20.658;2022-09-09T10:57:58;21.60;99.90
40340;DHT22;26044;50.864;20.658;2022-09-09T11:00:34;21.70;99.90
40340;DHT22;26044;50.864;20.658;2022-09-09T11:03:03;21.90;99.90
40340;DHT22;26044;50.864;20.658;2022-09-09T11:05:49;22.00;99.90
40340;DHT22;26044;50.864;20.658;2022-09-09T11:08:21;22.10;99.90
40340;DHT22;26044;50.864;20.658;2022-09-09T11:13:34;22.20;99.90
40340;DHT22;26044;50.864;20.658;2022-09-09T11:18:42;22.00;99.90
40340;DHT22;26044;50.864;20.658;2022-09-09T11:21:22;21.80;99.90
40340;DHT22;26044;50.864;20.658;2022-09-09T11:23:55;21.50;99.90
40340;DHT22;26044;50.864;20.658;2022-09-09T11:26:37;21.60;99.90
40340;DHT22;26044;50.864;20.658;2022-09-09T11:29:26;21.40;99.90
40340;DHT22;26044;50.864;20.658;2022-09-09T11:34:53;21.20;99.90
40340;DHT22;26044;50.864;20.658;2022-09-09T11:40:28;21.10;99.90
40340;DHT22;26044;50.864;20.658;2022-09-09T11:43:24;21.10;99.90
40340;DHT22;26044;50.864;20.658;2022-09-09T11:45:55;21.10;99.90
40340;DHT22;26044;50.864;20.658;2022-09-09T11:48:35;21.10;99.90
40340;DHT22;26044;50.864;20.658;2022-09-09T11:51:06;21.20;99.90
40340;DHT22;26044;50.864;20.658;2022-09-09T11:53:53;21.20;99.90
40340;DHT22;26044;50.864;20.658;2022-09-09T11:56:34;21.10;99.90
40340;DHT22;26044;50.864;20.658;2022-09-09T11:59:06;21.00;99.90
40340;DHT22;26044;50.864;20.658;2022-09-09T12:01:44;21.00;99.90
40340;DHT22;26044;50.864;20.658;2022-09-09T12:04:22;21.10;99.90
40340;DHT22;26044;50.864;20.658;2022-09-09T12:06:55;21.10;99.90
40340;DHT22;26044;50.864;20.658;2022-09-09T12:09:50;21.10;99.90
40340;DHT22;26044;50.864;20.658;2022-09-09T12:17:46;21.10;99.90
40340;DHT22;26044;50.864;20.658;2022-09-09T12:20:17;21.20;99.90
40340;DHT22;26044;50.864;20.658;2022-09-09T12:23:14;21.20;99.90
40340;DHT22;26044;50.864;20.658;2022-09-09T12:25:59;21.20;99.90
40340;DHT22;26044;50.864;20.658;2022-09-09T12:34:40;21.20;99.90
40340;DHT22;26044;50.864;20.658;2022-09-09T12:39:55;21.30;99.90
40340;DHT22;26044;50.864;20.658;2022-09-09T12:42:24;21.30;99.90
40340;DHT22;26044;50.864;20.658;2022-09-09T12:44:59;21.30;99.90
40340;DHT22;26044;50.864;20.658;2022-09-09T12:47:38;21.20;99.90
40340;DHT22;26044;50.864;20.658;2022-09-09T12:50:22;21.30;99.90
40340;DHT22;26044;50.864;20.658;2022-09-09T12:52:51;21.30;99.90
40340;DHT22;26044;50.864;20.658;2022-09-09T12:55:30;21.40;99.90
40340;DHT22;26044;50.864;20.658;2022-09-09T12:57:57;21.50;99.90
40340;DHT22;26044;50.864;20.658;2022-09-09T13:00:26;21.60;99.90
40340;DHT22;26044;50.864;20.658;2022-09-09T13:02:58;21.60;99.90
40340;DHT22;26044;50.864;20.658;2022-09-09T13:05:37;21.70;99.90
40340;DHT22;26044;50.864;20.658;2022-09-09T13:08:09;21.50;99.90
40340;DHT22;26044;50.864;20.658;2022-09-09T13:13:36;21.40;99.90
40340;DHT22;26044;50.864;20.658;2022-09-09T13:16:05;21.40;99.90
40340;DHT22;26044;50.864;20.658;2022-09-09T13:18:36;21.40;99.90
40340;DHT22;26044;50.864;20.658;2022-09-09T13:21:04;21.50;99.90
40340;DHT22;26044;50.864;20.658;2022-09-09T13:23:33;21.50;99.90
40340;DHT22;26044;50.864;20.658;2022-09-09T13:26:04;21.50;99.90
40340;DHT22;26044;50.864;20.658;2022-09-09T13:28:33;21.50;99.90
40340;DHT22;26044;50.864;20.658;2022-09-09T13:31:03;21.50;99.90
40340;DHT22;26044;50.864;20.658;2022-09-09T13:33:37;21.50;99.90
40340;DHT22;26044;50.864;20.658;2022-09-09T13:36:07;21.50;99.90
40340;DHT22;26044;50.864;20.658;2022-09-09T13:43:55;21.50;99.90
40340;DHT22;26044;50.864;20.658;2022-09-09T13:46:37;21.40;99.90
40340;DHT22;26044;50.864;20.658;2022-09-09T13:51:40;21.30;99.90
40340;DHT22;26044;50.864;20.658;2022-09-09T13:54:10;21.30;99.90
40340;DHT22;26044;50.864;20.658;2022-09-09T13:56:38;21.40;99.90
40340;DHT22;26044;50.864;20.658;2022-09-09T13:59:10;21.40;99.90
40340;DHT22;26044;50.864;20.658;2022-09-09T14:01:37;21.30;99.90
40340;DHT22;26044;50.864;20.658;2022-09-09T14:04:04;21.40;99.90
40340;DHT22;26044;50.864;20.658;2022-09-09T14:06:34;21.40;99.90
40340;DHT22;26044;50.864;20.658;2022-09-09T14:09:07;21.40;99.90
40340;DHT22;26044;50.864;20.658;2022-09-09T14:11:36;21.40;99.90
40340;DHT22;26044;50.864;20.658;2022-09-09T14:14:03;21.40;99.90
40340;DHT22;26044;50.864;20.658;2022-09-09T14:16:29;21.50;99.90
40340;DHT22;26044;50.864;20.658;2022-09-09T14:18:56;21.50;99.90
40340;DHT22;26044;50.864;20.658;2022-09-09T14:21:24;21.60;99.90
40340;DHT22;26044;50.864;20.658;2022-09-09T14:23:52;21.50;99.90
40340;DHT22;26044;50.864;20.658;2022-09-09T14:26:22;21.60;99.90
40340;DHT22;26044;50.864;20.658;2022-09-09T14:28:50;21.60;99.90
40340;DHT22;26044;50.864;20.658;2022-09-09T14:31:23;21.50;99.90
40340;DHT22;26044;50.864;20.658;2022-09-09T14:33:50;21.50;99.90
40340;DHT22;26044;50.864;20.658;2022-09-09T14:36:17;21.50;99.90
40340;DHT22;26044;50.864;20.658;2022-09-09T14:38:44;21.50;99.90
40340;DHT22;26044;50.864;20.658;2022-09-09T14:41:12;21.50;99.90
40340;DHT22;26044;50.864;20.658;2022-09-09T14:43:39;21.40;99.90
40340;DHT22;26044;50.864;20.658;2022-09-09T14:46:07;21.40;99.90
40340;DHT22;26044;50.864;20.658;2022-09-09T14:48:35;21.30;99.90
40340;DHT22;26044;50.864;20.658;2022-09-09T14:51:11;21.30;99.90
40340;DHT22;26044;50.864;20.658;2022-09-09T14:53:41;21.20;99.90
40340;DHT22;26044;50.864;20.658;2022-09-09T14:56:16;21.20;99.90
40340;DHT22;26044;50.864;20.658;2022-09-09T14:58:43;21.10;99.90
40340;DHT22;26044;50.864;20.658;2022-09-09T15:01:15;21.10;99.90
40340;DHT22;26044;50.864;20.658;2022-09-09T15:03:55;21.00;99.90
40340;DHT22;26044;50.864;20.658;2022-09-09T15:06:25;21.00;99.90
40340;DHT22;26044;50.864;20.658;2022-09-09T15:08:53;21.00;99.90
40340;DHT22;26044;50.864;20.658;2022-09-09T15:11:20;20.90;99.90
40340;DHT22;26044;50.864;20.658;2022-09-09T15:13:51;20.90;99.90
40340;DHT22;26044;50.864;20.658;2022-09-09T15:16:21;20.90;99.90
40340;DHT22;26044;50.864;20.658;2022-09-09T15:18:51;20.90;99.90
40340;DHT22;26044;50.864;20.658;2022-09-09T15:21:19;20.90;99.90
40340;DHT22;26044;50.864;20.658;2022-09-09T15:23:47;20.80;99.90
40340;DHT22;26044;50.864;20.658;2022-09-09T15:26:18;20.80;99.90
40340;DHT22;26044;50.864;20.658;2022-09-09T15:28:45;20.80;99.90
40340;DHT22;26044;50.864;20.658;2022-09-09T15:31:15;20.80;99.90
40340;DHT22;26044;50.864;20.658;2022-09-09T15:33:53;20.80;99.90
40340;DHT22;26044;50.864;20.658;2022-09-09T15:36:35;20.70;99.90
40340;DHT22;26044;50.864;20.658;2022-09-09T15:39:03;20.70;99.90
40340;DHT22;26044;50.864;20.658;2022-09-09T15:41:30;20.70;99.90
40340;DHT22;26044;50.864;20.658;2022-09-09T15:44:00;20.60;99.90
40340;DHT22;26044;50.864;20.658;2022-09-09T15:46:32;20.60;99.90
40340;DHT22;26044;50.864;20.658;2022-09-09T15:49:10;20.60;99.90
40340;DHT22;26044;50.864;20.658;2022-09-09T15:51:39;20.50;99.90
40340;DHT22;26044;50.864;20.658;2022-09-09T15:54:11;20.40;99.90
40340;DHT22;26044;50.864;20.658;2022-09-09T15:56:39;20.20;99.90
40340;DHT22;26044;50.864;20.658;2022-09-09T15:59:06;20.20;99.90
40340;DHT22;26044;50.864;20.658;2022-09-09T16:01:33;20.10;99.90
40340;DHT22;26044;50.864;20.658;2022-09-09T16:04:01;20.00;99.90
40340;DHT22;26044;50.864;20.658;2022-09-09T16:06:29;19.90;99.90
40340;DHT22;26044;50.864;20.658;2022-09-09T16:08:57;19.90;99.90
40340;DHT22;26044;50.864;20.658;2022-09-09T16:11:26;19.80;99.90
40340;DHT22;26044;50.864;20.658;2022-09-09T16:13:54;19.80;99.90
40340;DHT22;26044;50.864;20.658;2022-09-09T16:16:23;19.70;99.90
40340;DHT22;26044;50.864;20.658;2022-09-09T16:18:56;19.60;99.90
40340;DHT22;26044;50.864;20.658;2022-09-09T16:21:31;19.50;99.90
40340;DHT22;26044;50.864;20.658;2022-09-09T16:24:00;19.50;99.90
40340;DHT22;26044;50.864;20.658;2022-09-09T16:26:28;19.40;99.90
40340;DHT22;26044;50.864;20.658;2022-09-09T16:28:55;19.30;99.90
40340;DHT22;26044;50.864;20.658;2022-09-09T16:31:23;19.30;99.90
40340;DHT22;26044;50.864;20.658;2022-09-09T16:33:51;19.30;99.90
40340;DHT22;26044;50.864;20.658;2022-09-09T16:36:20;19.20;99.90
40340;DHT22;26044;50.864;20.658;2022-09-09T16:38:47;19.10;99.90
40340;DHT22;26044;50.864;20.658;2022-09-09T16:41:14;19.10;99.90
40340;DHT22;26044;50.864;20.658;2022-09-09T16:43:41;19.00;99.90
40340;DHT22;26044;50.864;20.658;2022-09-09T16:46:14;19.00;99.90
40340;DHT22;26044;50.864;20.658;2022-09-09T16:48:43;18.90;99.90
40340;DHT22;26044;50.864;20.658;2022-09-09T16:51:19;18.90;99.90
40340;DHT22;26044;50.864;20.658;2022-09-09T16:53:46;18.80;99.90
40340;DHT22;26044;50.864;20.658;2022-09-09T16:56:18;18.70;99.90
40340;DHT22;26044;50.864;20.658;2022-09-09T16:58:53;18.70;99.90
40340;DHT22;26044;50.864;20.658;2022-09-09T17:01:26;18.60;99.90
40340;DHT22;26044;50.864;20.658;2022-09-09T17:03:54;18.50;99.90
40340;DHT22;26044;50.864;20.658;2022-09-09T17:06:26;18.40;99.90
40340;DHT22;26044;50.864;20.658;2022-09-09T17:08:58;18.40;99.90
40340;DHT22;26044;50.864;20.658;2022-09-09T17:11:25;18.30;99.90
40340;DHT22;26044;50.864;20.658;2022-09-09T17:13:53;18.20;99.90
40340;DHT22;26044;50.864;20.658;2022-09-09T17:16:22;18.20;99.90
40340;DHT22;26044;50.864;20.658;2022-09-09T17:18:50;18.10;99.90
40340;DHT22;26044;50.864;20.658;2022-09-09T17:21:22;18.00;99.90
40340;DHT22;26044;50.864;20.658;2022-09-09T17:23:49;17.90;99.90
40340;DHT22;26044;50.864;20.658;2022-09-09T17:26:18;17.90;99.90
40340;DHT22;26044;50.864;20.658;2022-09-09T17:28:45;17.90;99.90
40340;DHT22;26044;50.864;20.658;2022-09-09T17:31:15;17.80;99.90
40340;DHT22;26044;50.864;20.658;2022-09-09T17:34:04;17.80;99.90
40340;DHT22;26044;50.864;20.658;2022-09-09T17:36:32;17.70;99.90
40340;DHT22;26044;50.864;20.658;2022-09-09T17:39:01;17.70;99.90
40340;DHT22;26044;50.864;20.658;2022-09-09T17:41:34;17.60;99.90
40340;DHT22;26044;50.864;20.658;2022-09-09T17:44:01;17.50;99.90
40340;DHT22;26044;50.864;20.658;2022-09-09T17:46:31;17.40;99.90
40340;DHT22;26044;50.864;20.658;2022-09-09T17:49:06;17.40;99.90
40340;DHT22;26044;50.864;20.658;2022-09-09T17:51:34;17.30;99.90
40340;DHT22;26044;50.864;20.658;2022-09-09T17:54:06;17.30;99.90